OEMO2: Okemah Hwy 56

Data processed at Tue May 03 22:50:15 2016 Central Daylight Time


All information presented herein is the property of the government of the United States of America and may be revised or deleted at any time without prior notice.
Dissemination of this information without the expressed written consent of the Public Affairs Office, Tulsa District U.S. Army Corps of Engineers is strictly prohibited.
These data are gathered electronically and, as presented, have not undergone any form of quality control. These data are not guaranteed to be valid or correct.
Go to home page.
Go to station list.
Go to station map.

Upstream stations:

Downstream station: Previous Day
Next Day
Current Day

Display graphics.
Display DCP transmissions.


    
    SHEF ID:       OEMO2     Okemah Hwy 56
    STATION TYPE:  STREAM GAGE
    
                   PRECIP     STAGE  RIV-FLOW   VOLTAGE  BAT-LOAD
                   INCHES      FEET       CFS     VOLTS     VOLTS
                     GOES      GOES      GOES      GOES      GOES
       (Cen)
    05/03 01:00      0.00     10.10      1182     12.65     12.57
    05/03 02:00      0.00     10.09      1179     12.65     12.57
    05/03 03:00      0.00     10.07      1173     12.65     12.57
    05/03 04:00      0.00     10.05      1167     12.65     12.57
    05/03 05:00      0.00     10.03      1161     12.65     12.57
    05/03 06:00      0.00     10.02      1158     12.65     12.57
    05/03 07:00      0.00     10.00      1151     12.65     12.57
    05/03 08:00      0.00      9.99      1148     12.73     12.65
    05/03 09:00      0.00      9.97      1142     13.44     13.29
    05/03 10:00      0.00      9.93      1130     13.68     13.29
    05/03 11:00      0.00      9.91      1124     13.76     13.68
    05/03 12:00      0.00      9.90      1121     13.44     14.00
    05/03 13:00      0.00      9.87      1112     14.24     14.08
    05/03 14:00      0.00      9.85      1105     13.92     13.60
    05/03 15:00      0.00      9.85      1105     14.00     13.21
    05/03 16:00      0.00      9.81      1093     13.53     12.89
    05/03 17:00      0.00      9.81      1093     13.84     12.89
    05/03 18:00      0.00      9.79      1087      ----      ----
    05/03 19:00      0.00      9.81      1093     13.21     12.81
    05/03 20:00      0.00      9.79      1087     12.73     12.73
    05/03 21:00      0.00      9.76      1077     12.73     12.65
    05/03 22:00      0.00      9.75      1074     12.73     12.65
    05/03 23:00      ----      ----      ----      ----      ----
    05/04 00:00      ----      ----      ----      ----      ----